»·PEaware :: RNGR817 KNGP-KNGP

RNGR817 :: KNGP-KNGP

FLIGHT INFORMATION

Flight Status: Arrived
Operator: Unknown
More flights by this operator :: More flights under this callsign
Pilot: USN Avenger (31125)
Aircraft: BEECH AIRCRAFT T-6A TEXAN
(TEX2)
More flights by this aircraft type
Origin: KNGP Corpus Christi NAS/Truax
United States
Destination: KNGP Corpus Christi NAS/Truax
United States
More flights between these airports :: More routes between these airports
Route: MUSTANG KNWL
File this flight plan on PilotEdge
Remarks:
Altitude:
(Current/Filed)
5,500ft
Speed:
(Current/Filed)
240kts
Departed: 15-Nov-23 02:01 PM
Arrived: 15-Nov-23 02:53 PM
Distance/Time
Traveled:
0nm/0:52
Distance/Time
To Go:
Arrived

Flight Plot

Page will automatically refresh every two minutes.

Flight plan parsing failed; only flown route is shown


Map Options




Map Legend


Flown Route
Filed Route
Departure Airport
Arrival Airport
Navaid (VOR, NDB)
Fix

Horizontal Profiles

Position Reports

Time Latitude Longitude Heading Altitude Ground
Speed
15-Nov-23 13:48 27.689423 -97.282257 0 22ft 0kts
15-Nov-23 13:49 27.689425 -97.282257 0 22ft 0kts
15-Nov-23 13:50 27.689427 -97.282257 0 22ft 0kts
15-Nov-23 13:51 27.689429 -97.282257 0 22ft 0kts
15-Nov-23 13:52 27.689431 -97.282257 1 22ft 0kts
15-Nov-23 13:53 27.689433 -97.282257 1 22ft 0kts
15-Nov-23 13:54 27.689591 -97.284052 271 22ft 18kts
15-Nov-23 13:55 27.689570 -97.291021 274 22ft 21kts
15-Nov-23 13:56 27.689807 -97.296546 308 22ft 8kts
15-Nov-23 13:57 27.690401 -97.296792 44 22ft 0kts
15-Nov-23 13:58 27.690402 -97.296790 44 22ft 0kts
15-Nov-23 13:59 27.690403 -97.296789 44 22ft 0kts
15-Nov-23 14:00 27.697051 -97.289076 40 221ft 116kts
15-Nov-23 14:01 27.742331 -97.271611 13 790ft 196kts
15-Nov-23 14:02 27.791271 -97.262370 356 3653ft 178kts
15-Nov-23 14:03 27.843576 -97.265669 353 5558ft 214kts
15-Nov-23 14:04 27.905258 -97.263833 11 7482ft 197kts
15-Nov-23 14:05 27.956949 -97.251419 11 10292ft 184kts
15-Nov-23 14:06 28.004230 -97.243774 4 12923ft 172kts
15-Nov-23 14:07 28.055302 -97.241522 337 14484ft 211kts
15-Nov-23 14:08 28.107468 -97.291254 316 14528ft 269kts
15-Nov-23 14:09 28.164281 -97.350902 316 14546ft 284kts
15-Nov-23 14:10 28.225983 -97.344299 84 13539ft 260kts
15-Nov-23 14:11 28.228011 -97.319337 209 12468ft 201kts
15-Nov-23 14:12 28.262004 -97.360175 342 10852ft 249kts
15-Nov-23 14:13 28.325102 -97.403648 324 6875ft 262kts
15-Nov-23 14:14 28.378367 -97.453192 315 5435ft 242kts
15-Nov-23 14:15 28.429799 -97.507418 317 5159ft 255kts
15-Nov-23 14:16 28.477636 -97.564200 307 2952ft 240kts
15-Nov-23 14:17 28.528855 -97.604918 350 1296ft 234kts
15-Nov-23 14:18 28.584741 -97.618409 344 1344ft 190kts
15-Nov-23 14:19 28.623044 -97.634771 183 1328ft 147kts
15-Nov-23 14:20 28.588312 -97.625076 104 825ft 127kts
15-Nov-23 14:21 28.613106 -97.620668 343 801ft 112kts
15-Nov-23 14:22 28.641627 -97.607519 49 1773ft 149kts
15-Nov-23 14:23 28.618735 -97.556673 144 2510ft 251kts
15-Nov-23 14:24 28.560968 -97.509772 144 2516ft 254kts
15-Nov-23 14:25 28.503274 -97.463315 143 2529ft 254kts
15-Nov-23 14:26 28.446082 -97.415740 145 2512ft 255kts
15-Nov-23 14:27 28.389532 -97.367190 143 2499ft 255kts
15-Nov-23 14:28 28.331054 -97.323041 161 2494ft 254kts
15-Nov-23 14:29 28.261575 -97.320563 189 2506ft 250kts
15-Nov-23 14:30 28.197034 -97.301950 149 2503ft 254kts
15-Nov-23 14:31 28.140188 -97.255313 100 2520ft 251kts
15-Nov-23 14:32 28.188575 -97.262139 330 4144ft 208kts
15-Nov-23 14:33 28.235634 -97.310280 302 4508ft 233kts
15-Nov-23 14:34 28.229188 -97.315460 141 2498ft 226kts
15-Nov-23 14:35 28.172364 -97.270631 150 2523ft 255kts
15-Nov-23 14:36 28.111735 -97.229216 145 2512ft 255kts
15-Nov-23 14:37 28.048017 -97.194297 157 2504ft 253kts
15-Nov-23 14:38 27.983033 -97.162931 157 2406ft 251kts
15-Nov-23 14:39 27.917760 -97.136849 169 1380ft 244kts
15-Nov-23 14:40 27.855072 -97.156806 209 1017ft 244kts
15-Nov-23 14:41 27.795255 -97.189090 199 2120ft 243kts
15-Nov-23 14:42 27.738434 -97.160661 150 1983ft 213kts
15-Nov-23 14:43 27.685795 -97.129984 153 2007ft 215kts
15-Nov-23 14:44 27.631688 -97.098791 155 1960ft 217kts
15-Nov-23 14:45 27.582931 -97.109378 223 1590ft 173kts
15-Nov-23 14:46 27.581471 -97.146887 302 1613ft 113kts
15-Nov-23 14:47 27.597598 -97.177835 304 1618ft 116kts
15-Nov-23 14:48 27.618520 -97.204230 312 1590ft 112kts
15-Nov-23 14:49 27.639836 -97.230089 313 893ft 111kts
15-Nov-23 14:50 27.661513 -97.254682 318 420ft 111kts
15-Nov-23 14:51 27.683352 -97.278288 315 143ft 98kts
15-Nov-23 14:52 27.691197 -97.286413 90 22ft 12kts
15-Nov-23 14:53 27.691218 -97.285957 84 22ft 5kts
15-Nov-23 14:54 27.692732 -97.285438 26 22ft 12kts
15-Nov-23 14:55 27.694403 -97.285065 338 22ft 0kts
15-Nov-23 14:56 27.698552 -97.284289 158 22ft 0kts

Navigation Log

Ident Type
Flight plan parsing failed, navigation log unavailable